createdAt,value
2018-01-22T00:02:34.691Z,3.77
2018-01-22T00:17:37.451Z,3.80
2018-01-22T00:32:35.203Z,4.47
2018-01-22T00:47:34.525Z,5.47
2018-01-22T01:02:36.908Z,4.10
2018-01-22T01:17:35.891Z,5.60
2018-01-22T01:32:34.981Z,3.77
2018-01-22T01:47:34.751Z,4.20
2018-01-22T02:02:35.153Z,4.47
2018-01-22T02:17:36.200Z,5.60
2018-01-22T02:32:34.967Z,4.83
2018-01-22T02:47:34.915Z,4.80
2018-01-22T03:02:34.378Z,4.20
2018-01-22T03:17:36.290Z,5.67
2018-01-22T03:32:34.292Z,4.23
2018-01-22T03:47:35.331Z,4.10
2018-01-22T04:02:36.849Z,3.93
2018-01-22T04:17:36.267Z,3.30
2018-01-22T04:32:36.474Z,3.37
2018-01-22T04:47:36.505Z,4.67
2018-01-22T05:02:36.150Z,4.93
2018-01-22T05:17:38.015Z,4.20
2018-01-22T05:32:34.732Z,6.10
2018-01-22T05:47:34.682Z,3.77
2018-01-22T06:02:38.576Z,4.50
2018-01-22T06:17:35.021Z,4.30
2018-01-22T06:32:34.877Z,4.67
2018-01-22T06:47:34.902Z,6.20
2018-01-22T07:02:34.287Z,6.40
2018-01-22T07:17:36.174Z,6.83
2018-01-22T07:32:35.179Z,11.77
2018-01-22T07:47:35.057Z,10.50
2018-01-22T08:02:34.011Z,9.90
2018-01-22T08:17:34.473Z,12.00
2018-01-22T08:32:34.429Z,14.23
2018-01-22T08:47:34.358Z,12.03
2018-01-22T09:02:34.720Z,13.40
2018-01-22T09:17:34.597Z,12.57
2018-01-22T09:32:34.611Z,13.43
2018-01-22T09:47:34.175Z,13.80
2018-01-22T10:02:34.935Z,15.20
2018-01-22T10:17:34.870Z,14.67
2018-01-22T10:32:34.845Z,14.73
2018-01-22T10:47:34.217Z,14.70
2018-01-22T11:02:35.217Z,15.97
2018-01-22T11:17:36.027Z,14.83
2018-01-22T11:32:37.095Z,14.37
2018-01-22T11:47:35.047Z,14.53
2018-01-22T12:02:34.359Z,14.80
2018-01-22T12:17:34.385Z,18.20
2018-01-22T12:32:34.336Z,16.57
2018-01-22T12:47:34.266Z,20.40
2018-01-22T13:02:34.541Z,18.80
2018-01-22T13:17:36.628Z,20.87
2018-01-22T13:32:34.453Z,17.77
2018-01-22T13:47:34.427Z,24.50
2018-01-22T14:02:34.900Z,21.43
2018-01-22T14:17:34.771Z,21.20
2018-01-22T14:32:34.726Z,24.63
2018-01-22T14:47:34.597Z,21.47
2018-01-22T15:02:35.133Z,31.90
2018-01-22T15:17:35.121Z,31.53
2018-01-22T15:32:35.023Z,30.60
2018-01-22T15:47:34.915Z,27.80
2018-01-22T16:02:42.837Z,28.13
2018-01-22T16:17:42.220Z,31.37
2018-01-22T16:32:38.579Z,30.47
2018-01-22T16:47:43.324Z,34.37
2018-01-22T17:02:38.084Z,36.53
2018-01-22T17:17:38.657Z,32.50
2018-01-22T17:32:34.139Z,36.60
2018-01-22T17:47:44.732Z,36.23
2018-01-22T18:02:46.201Z,34.47
2018-01-22T18:32:39.881Z,35.10
2018-01-22T18:47:52.371Z,35.70
2018-01-22T19:02:37.761Z,42.00
2018-01-22T19:17:44.281Z,34.83
2018-01-22T19:32:45.724Z,36.93
2018-01-22T19:47:43.915Z,35.00
2018-01-22T20:02:43.269Z,35.10
2018-01-22T20:17:36.414Z,33.00
2018-01-22T20:32:36.290Z,32.83
2018-01-22T20:47:37.184Z,32.83
2018-01-22T21:17:40.218Z,30.90
2018-01-22T21:32:40.023Z,30.73
